Smithmill, Pennsylvania
Current Conditions -  °F | °C
As of 7:54 PM on Monday 20 Oct 2014 (Local Time) from KFIG Reporting Station
Broken Clouds Broken Clouds  
Wind Chill: 51°   Ceiling: 9000
Heat Index: 51°   Visibility: 10mi
Dew Point: 39°   Wind: 3mph
Humidity: 63%   Direction: 200°SSW
Pressure: 29.9"   Gusts: NA
Location:  40.77°N, 78.42°W
Report Text: KFIG 202354Z AUTO 20003KT 10SM BKN090 11/04 A2990 RMK AO2 SLP131 60000 T01060039 10133 20106 53002
Loading
Personal Weather Stations






























Interactive Weather Map
Tropical Storm Tracking
New forecast layout! Learn more

10-Day Weather Forecast

Advertisements
Track Severe Weather on mobile